Pires Coelho — CUPM6 — position and weather

sailwx.info

Track history (hours):
 
Tides and Currents Weather Stations Pressure Air Temp Water Temp Dewpoint Dewpoint Depression Visibility Wind Speed Wind Dir Waves Ship Positions

Pires Coelho

Last reported at 2017-Feb-21 18:13 UTC. Time now 2017-Feb-22 15:17 UTC.
Position N 37°55' W 009°18'.

Length 27 m.

Type: Ship. MMSI: 263236000.

Date/timePositionNaut miles runAvg speedWind from/ knotsBaromVisibWave heightAir tempDewpointWater temp
2017-Feb-21 18:13N 37°55' W 009°18'7 9.9
2017-Feb-21 17:33N 37°55' W 009°09'1010.0
2017-Feb-21 16:33N 37°56' W 008°57'4 3.6
2017-Feb-21 15:32N 37°57' W 008°52'0 0.0
2017-Feb-21 14:33N 37°57' W 008°52'0 0.1
2017-Feb-21 13:33N 37°57' W 008°52'0 0.0
2017-Feb-21 12:33N 37°57' W 008°52'0 0.0
2017-Feb-21 11:32N 37°57' W 008°52'3 3.0
2017-Feb-21 10:33N 37°56' W 008°56'10 9.8
2017-Feb-21 09:33N 37°54' W 009°08'9 9.3
2017-Feb-21 08:33N 37°53' W 009°19'12 0.4
2017-Feb-19 22:33N 38°01' W 009°08'10 9.8
2017-Feb-19 21:34N 37°57' W 008°57'4 3.6
2017-Feb-19 20:33N 37°57' W 008°52'0 0.0
2017-Feb-19 19:33N 37°57' W 008°52'0 0.0
2017-Feb-19 18:33N 37°57' W 008°52'0 0.0
2017-Feb-19 17:32N 37°57' W 008°52'0 0.0
2017-Feb-19 16:32N 37°57' W 008°52'  
2017-Feb-16 23:32N 38°05' W 009°12'1010.1
2017-Feb-16 22:33N 38°00' W 009°02'8 7.8
2017-Feb-16 21:33N 37°57' W 008°52'0 0.0
2017-Feb-16 20:32N 37°57' W 008°52'0 0.0
2017-Feb-16 19:26N 37°57' W 008°52'0 0.0
2017-Feb-16 18:27N 37°57' W 008°52'0 0.0
2017-Feb-16 17:33N 37°57' W 008°52'0 0.0
2017-Feb-16 16:30N 37°57' W 008°52'8 7.9
2017-Feb-16 15:33N 37°60' W 009°01'1010.0
2017-Feb-16 14:33N 38°03' W 009°13'  
2017-Feb-13 18:29N 37°05' W 008°30'4 0.2
2017-Feb-13 02:29N 37°08' W 008°32'0 0.0
2017-Feb-13 01:19N 37°08' W 008°32'0 0.0
2017-Feb-13 00:21N 37°08' W 008°32'0 0.0
2017-Feb-12 23:21N 37°08' W 008°32'0 0.0
2017-Feb-12 22:26N 37°08' W 008°32'0 0.0
2017-Feb-12 21:30N 37°08' W 008°32'0 0.0
2017-Feb-12 20:29N 37°08' W 008°32'0 0.0
2017-Feb-12 18:28N 37°08' W 008°32'0 0.0
2017-Feb-12 17:33N 37°08' W 008°32'0 0.0
2017-Feb-12 16:32N 37°08' W 008°32'0 0.0
2017-Feb-12 14:33N 37°08' W 008°32'0 0.0
2017-Feb-12 13:31N 37°08' W 008°32'0 0.0
2017-Feb-12 12:19N 37°08' W 008°32'0 0.0
2017-Feb-12 10:29N 37°08' W 008°32'0 0.0
2017-Feb-12 09:29N 37°08' W 008°32'0 0.0
2017-Feb-12 08:22N 37°08' W 008°32'0 0.0
2017-Feb-12 07:33N 37°08' W 008°32'0 0.0
2017-Feb-12 06:04N 37°08' W 008°32'0 0.0
2017-Feb-12 05:25N 37°08' W 008°32'0 0.0
2017-Feb-12 04:25N 37°08' W 008°32'0 0.0
2017-Feb-12 03:16N 37°08' W 008°32'0 0.0
2017-Feb-12 02:21N 37°08' W 008°32'0 0.0
2017-Feb-12 01:16N 37°08' W 008°32'0 0.0
2017-Feb-12 00:29N 37°08' W 008°32'0 0.0
2017-Feb-11 23:16N 37°08' W 008°32'0 0.0
2017-Feb-11 22:32N 37°08' W 008°32'0 0.0
2017-Feb-11 21:32N 37°08' W 008°32'0 0.0
2017-Feb-11 19:33N 37°08' W 008°32'0 0.0
2017-Feb-11 18:26N 37°08' W 008°32'  
Track history (hours):
 
Tides and Currents Weather Stations Pressure Air Temp Water Temp Dewpoint Dewpoint Depression Visibility Wind Speed Wind Dir Waves Ship Positions

Pires Coelho

Last reported at 2017-Feb-21 18:13 UTC. Time now 2017-Feb-22 15:17 UTC.
Position N 37°55' W 009°18'.

Length 27 m.

Type: Ship. MMSI: 263236000.

Date/timePositionNaut miles runAvg speedWind from/ knotsBaromVisibWave heightAir tempDewpointWater temp
2017-Feb-21 18:13N 37°55' W 009°18'7 9.9
2017-Feb-21 17:33N 37°55' W 009°09'1010.0
2017-Feb-21 16:33N 37°56' W 008°57'4 3.6
2017-Feb-21 15:32N 37°57' W 008°52'0 0.0
2017-Feb-21 14:33N 37°57' W 008°52'0 0.1
2017-Feb-21 13:33N 37°57' W 008°52'0 0.0
2017-Feb-21 12:33N 37°57' W 008°52'0 0.0
2017-Feb-21 11:32N 37°57' W 008°52'3 3.0
2017-Feb-21 10:33N 37°56' W 008°56'10 9.8
2017-Feb-21 09:33N 37°54' W 009°08'9 9.3
2017-Feb-21 08:33N 37°53' W 009°19'12 0.4
2017-Feb-19 22:33N 38°01' W 009°08'10 9.8
2017-Feb-19 21:34N 37°57' W 008°57'4 3.6
2017-Feb-19 20:33N 37°57' W 008°52'0 0.0
2017-Feb-19 19:33N 37°57' W 008°52'0 0.0
2017-Feb-19 18:33N 37°57' W 008°52'0 0.0
2017-Feb-19 17:32N 37°57' W 008°52'0 0.0
2017-Feb-19 16:32N 37°57' W 008°52'  
2017-Feb-16 23:32N 38°05' W 009°12'1010.1
2017-Feb-16 22:33N 38°00' W 009°02'8 7.8
2017-Feb-16 21:33N 37°57' W 008°52'0 0.0
2017-Feb-16 20:32N 37°57' W 008°52'0 0.0
2017-Feb-16 19:26N 37°57' W 008°52'0 0.0
2017-Feb-16 18:27N 37°57' W 008°52'0 0.0
2017-Feb-16 17:33N 37°57' W 008°52'0 0.0
2017-Feb-16 16:30N 37°57' W 008°52'8 7.9
2017-Feb-16 15:33N 37°60' W 009°01'1010.0
2017-Feb-16 14:33N 38°03' W 009°13'  
2017-Feb-13 18:29N 37°05' W 008°30'4 0.2
2017-Feb-13 02:29N 37°08' W 008°32'0 0.0
2017-Feb-13 01:19N 37°08' W 008°32'0 0.0
2017-Feb-13 00:21N 37°08' W 008°32'0 0.0
2017-Feb-12 23:21N 37°08' W 008°32'0 0.0
2017-Feb-12 22:26N 37°08' W 008°32'0 0.0
2017-Feb-12 21:30N 37°08' W 008°32'0 0.0
2017-Feb-12 20:29N 37°08' W 008°32'0 0.0
2017-Feb-12 18:28N 37°08' W 008°32'0 0.0
2017-Feb-12 17:33N 37°08' W 008°32'0 0.0
2017-Feb-12 16:32N 37°08' W 008°32'0 0.0
2017-Feb-12 14:33N 37°08' W 008°32'0 0.0
2017-Feb-12 13:31N 37°08' W 008°32'0 0.0
2017-Feb-12 12:19N 37°08' W 008°32'0 0.0
2017-Feb-12 10:29N 37°08' W 008°32'0 0.0
2017-Feb-12 09:29N 37°08' W 008°32'0 0.0
2017-Feb-12 08:22N 37°08' W 008°32'0 0.0
2017-Feb-12 07:33N 37°08' W 008°32'0 0.0
2017-Feb-12 06:04N 37°08' W 008°32'0 0.0
2017-Feb-12 05:25N 37°08' W 008°32'0 0.0
2017-Feb-12 04:25N 37°08' W 008°32'0 0.0
2017-Feb-12 03:16N 37°08' W 008°32'0 0.0
2017-Feb-12 02:21N 37°08' W 008°32'0 0.0
2017-Feb-12 01:16N 37°08' W 008°32'0 0.0
2017-Feb-12 00:29N 37°08' W 008°32'0 0.0
2017-Feb-11 23:16N 37°08' W 008°32'0 0.0
2017-Feb-11 22:32N 37°08' W 008°32'0 0.0
2017-Feb-11 21:32N 37°08' W 008°32'0 0.0
2017-Feb-11 19:33N 37°08' W 008°32'0 0.0
2017-Feb-11 18:26N 37°08' W 008°32'  

Dump ship's entire track history